Time;durP1;ratioP1;P1;durP2;ratioP2;P2;SDS_P1;SDS_P2;PMS_P1;PMS_P2;Temp;Humidity;BMP_temperature;BMP_pressure;BME280_temperature;BME280_humidity;BME280_pressure;Samples;Min_cycle;Max_cycle;Signal;HPM_P1;HPM_P2
2024/01/23 00:01:35;;;;;;;4.63;1.83;;;21.90;30.30;;;;;;4940394;29;20055;-55
2024/01/23 00:04:03;;;;;;;4.90;1.45;;;22.00;30.30;;;;;;4943236;28;20059;-61
2024/01/23 00:06:31;;;;;;;5.47;1.85;;;22.00;30.30;;;;;;4940991;28;20468;-60
2024/01/23 00:08:58;;;;;;;6.28;1.70;;;22.00;30.20;;;;;;4946734;28;20067;-61
2024/01/23 00:11:25;;;;;;;5.43;1.95;;;22.10;30.20;;;;;;4946347;28;20384;-61
2024/01/23 00:13:53;;;;;;;5.55;1.67;;;22.10;30.20;;;;;;4944212;28;20055;-60
2024/01/23 00:16:20;;;;;;;6.07;2.00;;;22.10;30.10;;;;;;4945489;28;20062;-59
2024/01/23 00:18:47;;;;;;;6.22;1.92;;;22.10;30.10;;;;;;4944291;28;20083;-57
2024/01/23 00:21:16;;;;;;;4.63;1.90;;;22.20;30.10;;;;;;4944665;29;20047;-58
2024/01/23 00:23:43;;;;;;;5.57;1.65;;;22.20;30.10;;;;;;4946342;28;20492;-57
2024/01/23 00:26:11;;;;;;;5.65;1.90;;;22.20;30.10;;;;;;4947015;28;20050;-57
2024/01/23 00:28:38;;;;;;;7.50;2.10;;;22.10;30.00;;;;;;4943276;28;20059;-58
2024/01/23 00:31:07;;;;;;;7.28;1.88;;;22.10;30.00;;;;;;4944065;28;20066;-58
2024/01/23 00:33:34;;;;;;;6.28;2.08;;;22.10;30.00;;;;;;4945358;28;20055;-57
2024/01/23 00:36:02;;;;;;;6.55;1.95;;;22.10;30.00;;;;;;4944599;28;20043;-57
2024/01/23 00:38:30;;;;;;;9.30;2.30;;;22.10;30.00;;;;;;4945091;29;20051;-57
2024/01/23 00:40:58;;;;;;;6.90;2.08;;;22.10;30.00;;;;;;4946454;28;20076;-57
2024/01/23 00:43:25;;;;;;;7.00;2.10;;;22.10;30.00;;;;;;4944499;28;20516;-57
2024/01/23 00:45:53;;;;;;;5.80;2.10;;;22.10;30.50;;;;;;4945344;28;20051;-58
2024/01/23 00:48:20;;;;;;;5.85;1.95;;;22.00;30.00;;;;;;4944154;28;20063;-58
2024/01/23 00:50:47;;;;;;;6.13;2.25;;;22.00;30.00;;;;;;4945816;29;20515;-58
2024/01/23 00:53:15;;;;;;;6.40;2.17;;;22.00;30.00;;;;;;4941139;28;20051;-57
2024/01/23 00:55:43;;;;;;;5.53;2.22;;;22.00;30.00;;;;;;4946517;28;20075;-57
2024/01/23 00:58:11;;;;;;;7.07;2.40;;;21.90;30.00;;;;;;4944124;28;20051;-57
2024/01/23 01:00:44;;;;;;;8.20;1.92;;;21.90;30.00;;;;;;4945366;28;20415;-56
2024/01/23 01:03:11;;;;;;;7.65;2.40;;;21.90;30.00;;;;;;4942545;28;20055;-57
2024/01/23 01:05:39;;;;;;;5.63;2.15;;;21.90;30.00;;;;;;4943459;28;20500;-57
2024/01/23 01:08:06;;;;;;;6.68;2.08;;;21.80;30.00;;;;;;4946679;28;20408;-57
2024/01/23 01:10:34;;;;;;;7.05;2.28;;;21.80;30.00;;;;;;4944011;28;20140;-58
2024/01/23 01:13:03;;;;;;;8.10;2.20;;;21.80;30.00;;;;;;4944459;28;20059;-57
2024/01/23 01:15:30;;;;;;;5.68;1.88;;;21.80;30.10;;;;;;4944633;28;20055;-57
2024/01/23 01:17:58;;;;;;;5.93;1.85;;;21.80;30.20;;;;;;4944794;28;20058;-58
2024/01/23 01:20:25;;;;;;;4.35;1.77;;;21.80;30.20;;;;;;4944502;28;20741;-57
2024/01/23 01:22:52;;;;;;;5.75;2.22;;;21.80;30.20;;;;;;4944793;28;20055;-57
2024/01/23 01:25:19;;;;;;;8.82;2.35;;;21.90;30.30;;;;;;4945316;28;20059;-54
2024/01/23 01:27:47;;;;;;;5.30;1.92;;;21.90;30.30;;;;;;4942404;28;20389;-58
2024/01/23 01:30:15;;;;;;;5.80;1.60;;;21.90;30.20;;;;;;4945701;28;20066;-57
2024/01/23 01:32:43;;;;;;;6.32;2.20;;;22.00;30.30;;;;;;4944316;28;20492;-57
2024/01/23 01:35:10;;;;;;;6.68;1.98;;;22.00;30.20;;;;;;4941672;28;20061;-57
2024/01/23 01:37:37;;;;;;;7.22;2.25;;;22.00;30.20;;;;;;4943065;28;20052;-56
2024/01/23 01:40:05;;;;;;;6.32;1.77;;;22.00;30.20;;;;;;4944500;28;20672;-56
2024/01/23 01:42:32;;;;;;;7.75;1.90;;;22.00;30.20;;;;;;4941275;28;20431;-55
2024/01/23 01:45:00;;;;;;;6.68;2.08;;;22.10;30.20;;;;;;4946952;28;20063;-57
2024/01/23 01:47:28;;;;;;;7.15;2.20;;;22.10;30.10;;;;;;4945033;28;20055;-57
2024/01/23 01:49:56;;;;;;;5.70;1.70;;;22.10;30.10;;;;;;4945206;28;20062;-57
2024/01/23 01:52:24;;;;;;;10.02;2.45;;;22.10;30.10;;;;;;4942680;28;20770;-59
2024/01/23 01:54:52;;;;;;;6.72;2.13;;;22.10;30.10;;;;;;4942287;28;20062;-57
2024/01/23 01:57:21;;;;;;;5.47;1.65;;;22.10;30.10;;;;;;4943885;28;20055;-57
2024/01/23 01:59:51;;;;;;;6.10;1.90;;;22.10;30.10;;;;;;4940769;28;20055;-57
2024/01/23 02:02:19;;;;;;;6.50;1.95;;;22.10;30.20;;;;;;4942092;28;20055;-57
2024/01/23 02:04:48;;;;;;;6.20;2.08;;;22.10;30.10;;;;;;4949770;28;20051;-57
2024/01/23 02:07:15;;;;;;;4.07;1.60;;;22.00;30.10;;;;;;4945983;28;20054;-56
2024/01/23 02:09:43;;;;;;;6.82;1.83;;;22.00;30.20;;;;;;4942763;28;20054;-57
2024/01/23 02:12:10;;;;;;;6.07;2.10;;;22.00;30.20;;;;;;4944183;28;20077;-57
2024/01/23 02:14:38;;;;;;;8.38;2.50;;;22.00;30.20;;;;;;4944011;28;20051;-55
2024/01/23 02:17:05;;;;;;;7.07;2.03;;;22.00;30.20;;;;;;4940998;28;20058;-56
2024/01/23 02:19:33;;;;;;;5.95;2.00;;;21.90;30.20;;;;;;4943700;28;20424;-58
2024/01/23 02:22:01;;;;;;;7.63;2.35;;;21.90;30.20;;;;;;4945026;28;21344;-57
2024/01/23 02:24:30;;;;;;;6.15;2.20;;;21.90;30.20;;;;;;4943084;28;20055;-58
2024/01/23 02:26:57;;;;;;;7.55;1.95;;;21.80;30.20;;;;;;4945934;28;20055;-58
2024/01/23 02:29:24;;;;;;;9.32;2.38;;;21.80;30.20;;;;;;4942206;28;20508;-57
2024/01/23 02:31:51;;;;;;;8.23;1.95;;;21.80;30.20;;;;;;4943066;28;20055;-57
2024/01/23 02:34:21;;;;;;;7.03;2.10;;;21.80;30.30;;;;;;4943914;28;20055;-57
2024/01/23 02:36:48;;;;;;;6.88;2.17;;;21.80;30.30;;;;;;4940820;28;20078;-58
2024/01/23 02:39:15;;;;;;;7.72;2.00;;;21.80;30.40;;;;;;4942277;28;20514;-57
2024/01/23 02:41:44;;;;;;;6.78;2.13;;;21.80;30.40;;;;;;4943396;28;20043;-56
2024/01/23 02:44:11;;;;;;;5.75;2.22;;;21.90;30.50;;;;;;4940738;28;20065;-57
2024/01/23 02:46:42;;;;;;;6.53;1.92;;;21.90;30.50;;;;;;4939456;28;20517;-58
2024/01/23 02:49:09;;;;;;;6.15;2.30;;;21.90;30.50;;;;;;4944507;28;20496;-56
2024/01/23 02:51:36;;;;;;;9.05;2.08;;;22.00;30.40;;;;;;4943682;28;20066;-56
2024/01/23 02:54:04;;;;;;;6.82;1.88;;;22.00;30.40;;;;;;4943998;28;20063;-58
2024/01/23 02:56:31;;;;;;;6.65;2.10;;;22.10;30.40;;;;;;4942897;28;20047;-57
2024/01/23 02:58:59;;;;;;;6.28;1.90;;;22.10;30.30;;;;;;4940103;28;20504;-57
2024/01/23 03:01:27;;;;;;;7.82;2.38;;;22.10;30.30;;;;;;4944281;28;20136;-58
2024/01/23 03:03:54;;;;;;;8.48;2.50;;;22.20;30.30;;;;;;4942933;28;20059;-57
2024/01/23 03:06:21;;;;;;;6.95;2.30;;;22.20;30.30;;;;;;4939198;28;20488;-56
2024/01/23 03:08:48;;;;;;;8.25;2.67;;;22.20;30.20;;;;;;4941532;28;20054;-57
2024/01/23 03:11:16;;;;;;;31.63;3.33;;;22.20;30.20;;;;;;4943653;28;20059;-56
2024/01/23 03:13:44;;;;;;;11.85;3.10;;;22.20;30.20;;;;;;4944528;28;20074;-56
2024/01/23 03:16:13;;;;;;;11.18;2.70;;;22.10;30.10;;;;;;4940151;28;20054;-56
2024/01/23 03:18:40;;;;;;;10.77;2.60;;;22.20;30.10;;;;;;4942143;28;20055;-57
2024/01/23 03:21:07;;;;;;;11.45;2.97;;;22.10;30.00;;;;;;4941104;29;20055;-53
2024/01/23 03:23:35;;;;;;;15.05;2.85;;;22.10;30.00;;;;;;4940552;28;20550;-56
2024/01/23 03:26:02;;;;;;;7.88;2.58;;;22.10;30.10;;;;;;4944300;29;20051;-57
2024/01/23 03:28:29;;;;;;;8.32;2.50;;;22.10;30.10;;;;;;4945614;29;20457;-58
2024/01/23 03:31:01;;;;;;;9.77;2.35;;;22.10;30.10;;;;;;4945596;28;20585;-60
2024/01/23 03:33:30;;;;;;;8.95;2.83;;;22.10;30.10;;;;;;4937148;29;20071;-60
2024/01/23 03:35:57;;;;;;;6.97;2.30;;;22.00;30.20;;;;;;4948642;28;20062;-60
2024/01/23 03:38:25;;;;;;;7.70;2.42;;;22.00;30.20;;;;;;4938406;29;20512;-59
2024/01/23 03:40:52;;;;;;;15.75;2.90;;;21.90;30.20;;;;;;4947849;28;20058;-58
2024/01/23 03:43:20;;;;;;;6.25;2.13;;;21.90;30.20;;;;;;4929863;29;20089;-59
2024/01/23 03:45:47;;;;;;;5.68;2.03;;;21.90;30.20;;;;;;4929015;29;20051;-58
2024/01/23 03:48:14;;;;;;;8.35;2.55;;;21.90;30.30;;;;;;4932613;29;20413;-59
2024/01/23 03:50:43;;;;;;;9.35;2.53;;;21.90;30.30;;;;;;4930913;29;20052;-58
2024/01/23 03:53:10;;;;;;;9.20;2.38;;;21.80;30.30;;;;;;4928033;29;20059;-60
2024/01/23 03:55:37;;;;;;;7.20;2.10;;;21.80;30.20;;;;;;4931092;29;20060;-58
2024/01/23 03:58:04;;;;;;;7.40;2.20;;;21.70;30.20;;;;;;4930058;29;20626;-58
2024/01/23 04:00:32;;;;;;;6.72;2.58;;;21.80;30.30;;;;;;4936881;29;20055;-58
2024/01/23 04:03:00;;;;;;;6.70;2.08;;;21.70;30.30;;;;;;4938688;29;20059;-59
2024/01/23 04:05:27;;;;;;;5.82;1.98;;;21.70;30.30;;;;;;4938146;29;20063;-60
2024/01/23 04:07:55;;;;;;;8.43;1.95;;;21.80;30.40;;;;;;4948918;29;20051;-57
2024/01/23 04:10:23;;;;;;;7.47;2.03;;;21.80;30.50;;;;;;4948179;29;20063;-57
2024/01/23 04:12:50;;;;;;;6.80;2.22;;;21.80;30.50;;;;;;4944422;28;20059;-57
2024/01/23 04:15:17;;;;;;;6.85;2.00;;;21.90;30.50;;;;;;4939753;29;20078;-58
2024/01/23 04:17:45;;;;;;;5.95;1.98;;;21.90;30.50;;;;;;4934449;29;20052;-58
2024/01/23 04:20:13;;;;;;;5.30;2.03;;;22.00;30.50;;;;;;4938211;29;20517;-57
2024/01/23 04:22:40;;;;;;;5.13;1.88;;;22.00;30.40;;;;;;4941670;29;20062;-58
2024/01/23 04:25:11;;;;;;;5.32;1.80;;;22.10;30.40;;;;;;4935171;29;20061;-57
2024/01/23 04:27:39;;;;;;;6.00;1.80;;;22.10;30.40;;;;;;4943576;29;20516;-56
2024/01/23 04:30:07;;;;;;;5.60;2.42;;;22.10;30.30;;;;;;4930737;29;20931;-56
2024/01/23 04:32:35;;;;;;;5.55;1.98;;;22.10;30.30;;;;;;4928556;29;20047;-58
2024/01/23 04:35:02;;;;;;;8.15;2.53;;;22.20;30.30;;;;;;4934465;29;20385;-56
2024/01/23 04:37:29;;;;;;;6.28;2.00;;;22.20;30.30;;;;;;4934151;29;20051;-56
2024/01/23 04:39:57;;;;;;;6.40;2.42;;;22.20;30.30;;;;;;4937378;29;20071;-58
2024/01/23 04:42:25;;;;;;;7.20;2.47;;;22.20;30.30;;;;;;4938868;29;20056;-58
2024/01/23 04:44:53;;;;;;;9.48;2.40;;;22.20;30.20;;;;;;4936630;29;20055;-54
2024/01/23 04:47:20;;;;;;;7.18;2.40;;;22.20;30.30;;;;;;4929904;29;20062;-56
2024/01/23 04:49:47;;;;;;;6.40;1.83;;;22.20;30.30;;;;;;4925810;29;20497;-56
2024/01/23 04:52:14;;;;;;;7.55;2.58;;;22.20;30.30;;;;;;4927848;29;20063;-56
2024/01/23 04:54:42;;;;;;;4.68;2.05;;;22.20;30.20;;;;;;4932305;29;20059;-57
2024/01/23 04:57:10;;;;;;;7.38;2.10;;;22.10;30.20;;;;;;4929819;29;20528;-58
2024/01/23 04:59:39;;;;;;;5.85;1.95;;;22.10;30.20;;;;;;4933165;29;20059;-60
2024/01/23 05:02:06;;;;;;;7.90;2.35;;;22.10;30.20;;;;;;4926455;28;20055;-60
2024/01/23 05:04:33;;;;;;;10.02;2.58;;;22.10;30.30;;;;;;4929894;29;20060;-60
2024/01/23 05:07:01;;;;;;;9.00;2.65;;;22.10;30.40;;;;;;4924567;29;20052;-59
2024/01/23 05:09:31;;;;;;;14.00;2.90;;;22.10;30.40;;;;;;4929912;29;20062;-55
2024/01/23 05:11:58;;;;;;;9.13;2.00;;;22.10;30.50;;;;;;4928538;29;20052;-56
2024/01/23 05:14:25;;;;;;;17.60;2.70;;;22.20;30.50;;;;;;4924816;29;20067;-60
2024/01/23 05:16:54;;;;;;;13.70;5.18;;;22.20;30.40;;;;;;4927897;29;20058;-61
2024/01/23 05:19:21;;;;;;;22.15;10.77;;;22.30;30.40;;;;;;4924087;29;20496;-57
2024/01/23 05:21:48;;;;;;;17.63;8.63;;;22.30;30.30;;;;;;4924223;29;20066;-62
2024/01/23 05:24:17;;;;;;;12.30;4.43;;;22.30;30.30;;;;;;4931272;29;20489;-62
2024/01/23 05:26:44;;;;;;;9.70;4.15;;;22.30;30.20;;;;;;4926581;29;20067;-60
2024/01/23 05:29:11;;;;;;;9.93;3.70;;;22.30;30.20;;;;;;4924906;29;20060;-59
2024/01/23 05:31:38;;;;;;;9.98;3.33;;;22.40;30.20;;;;;;4925686;29;20059;-57
2024/01/23 05:34:07;;;;;;;9.57;3.58;;;22.30;30.20;;;;;;4925638;29;20060;-59
2024/01/23 05:36:34;;;;;;;10.93;3.85;;;22.30;30.20;;;;;;4925842;29;20448;-59
2024/01/23 05:39:01;;;;;;;11.23;3.80;;;22.30;30.20;;;;;;4927976;29;20054;-51
2024/01/23 05:41:29;;;;;;;18.98;3.63;;;22.30;30.20;;;;;;4927241;29;20059;-58
2024/01/23 05:43:57;;;;;;;10.40;2.90;;;22.30;30.20;;;;;;4922572;29;20060;-60
2024/01/23 05:46:24;;;;;;;8.65;2.90;;;22.30;30.10;;;;;;4920572;29;20059;-60
2024/01/23 05:48:52;;;;;;;8.57;2.70;;;22.30;30.10;;;;;;4922874;29;20048;-59
2024/01/23 05:51:20;;;;;;;7.63;2.85;;;22.30;30.10;;;;;;4929033;29;20536;-59
2024/01/23 05:53:47;;;;;;;8.25;3.03;;;22.20;30.10;;;;;;4930016;29;20435;-58
2024/01/23 05:56:15;;;;;;;9.65;3.30;;;22.30;30.10;;;;;;4923827;29;20052;-59
2024/01/23 05:58:43;;;;;;;16.42;6.95;;;22.20;30.10;;;;;;4923788;29;20417;-60
2024/01/23 06:01:11;;;;;;;23.73;10.88;;;22.20;30.10;;;;;;4923802;29;20078;-58
2024/01/23 06:03:39;;;;;;;22.10;9.25;;;22.20;30.10;;;;;;4922619;29;20390;-59
2024/01/23 06:06:07;;;;;;;16.30;8.20;;;22.10;30.00;;;;;;4928562;29;20476;-53
2024/01/23 06:08:35;;;;;;;13.02;5.60;;;22.10;30.10;;;;;;4926115;29;20075;-53
2024/01/23 06:11:04;;;;;;;9.75;4.68;;;22.00;30.10;;;;;;4916580;29;20444;-51
2024/01/23 06:13:31;;;;;;;13.50;4.75;;;22.00;30.10;;;;;;4920911;29;20059;-54
2024/01/23 06:15:58;;;;;;;9.43;4.13;;;22.00;30.10;;;;;;4921498;29;20055;-56
2024/01/23 06:18:25;;;;;;;9.65;3.40;;;22.00;30.10;;;;;;4925244;29;20425;-53
2024/01/23 06:20:52;;;;;;;13.60;4.00;;;21.90;30.10;;;;;;4924237;29;20048;-55
2024/01/23 06:23:20;;;;;;;10.75;3.88;;;21.90;30.10;;;;;;4920618;29;20059;-52
2024/01/23 06:25:48;;;;;;;27.85;12.07;;;21.90;30.20;;;;;;4922017;29;20060;-53
2024/01/23 06:28:15;;;;;;;25.67;13.57;;;21.90;30.30;;;;;;4918035;29;20052;-52
2024/01/23 06:30:43;;;;;;;20.02;8.05;;;21.90;30.30;;;;;;4923072;29;20051;-55
2024/01/23 06:33:11;;;;;;;13.95;6.93;;;21.90;30.30;;;;;;4922049;29;20412;-55
2024/01/23 06:35:38;;;;;;;10.95;5.72;;;21.90;30.40;;;;;;4921577;29;20063;-52
2024/01/23 06:38:05;;;;;;;11.32;4.95;;;21.90;30.40;;;;;;4921521;29;20059;-55
2024/01/23 06:40:32;;;;;;;16.05;4.93;;;21.90;30.40;;;;;;4920193;29;20527;-55
2024/01/23 06:43:01;;;;;;;8.60;4.38;;;22.00;30.40;;;;;;4922437;29;20064;-59
2024/01/23 06:45:28;;;;;;;7.82;4.03;;;22.00;30.40;;;;;;4922221;29;20081;-55
2024/01/23 06:47:55;;;;;;;11.90;4.90;;;22.00;30.40;;;;;;4919641;29;20090;-56
2024/01/23 06:50:22;;;;;;;7.95;4.00;;;22.10;30.40;;;;;;4922201;29;20056;-56
2024/01/23 06:52:49;;;;;;;9.38;4.18;;;22.10;30.30;;;;;;4923685;29;20059;-56
2024/01/23 06:55:17;;;;;;;26.77;4.72;;;22.20;30.40;;;;;;4917883;29;20428;-54
2024/01/23 06:57:44;;;;;;;8.68;3.65;;;22.20;30.40;;;;;;4925508;29;20525;-53
2024/01/23 07:00:14;;;;;;;10.48;4.63;;;22.20;30.40;;;;;;4924097;29;20400;-55
2024/01/23 07:02:41;;;;;;;10.55;3.58;;;22.20;30.40;;;;;;4926366;29;20059;-54
2024/01/23 07:05:09;;;;;;;9.02;3.30;;;22.20;30.30;;;;;;4921523;29;20062;-53
2024/01/23 07:08:13;;;;;;;18.52;3.60;;;22.30;30.20;;;;;;4926826;29;20059;-49
2024/01/23 07:10:41;;;;;;;8.25;2.85;;;22.30;30.20;;;;;;4919559;29;20067;-52
2024/01/23 07:13:08;;;;;;;9.43;3.20;;;22.30;30.10;;;;;;4923848;29;20055;-49
2024/01/23 07:15:36;;;;;;;11.52;3.30;;;22.30;30.10;;;;;;4925293;29;20492;-49
2024/01/23 07:18:04;;;;;;;20.63;3.60;;;22.30;30.00;;;;;;4925882;29;20055;-54
2024/01/23 07:20:31;;;;;;;10.43;2.90;;;22.30;30.00;;;;;;4925454;29;20522;-58
2024/01/23 07:22:59;;;;;;;11.05;2.63;;;22.30;30.00;;;;;;4924665;29;20068;-61
2024/01/23 07:25:26;;;;;;;9.68;2.92;;;22.30;30.00;;;;;;4928033;29;20055;-59
2024/01/23 07:27:53;;;;;;;9.70;3.50;;;22.30;30.00;;;;;;4924682;29;20051;-56
2024/01/23 07:30:21;;;;;;;15.65;3.45;;;22.20;30.00;;;;;;4924907;29;20559;-51
2024/01/23 07:32:49;;;;;;;7.65;2.90;;;22.20;30.00;;;;;;4924320;29;20063;-57
2024/01/23 07:35:16;;;;;;;10.50;3.50;;;22.20;30.10;;;;;;4925866;29;20056;-58
2024/01/23 07:37:44;;;;;;;9.55;2.67;;;22.20;30.00;;;;;;4920357;29;20137;-57
2024/01/23 07:40:10;;;;;;;12.77;2.45;;;22.20;30.00;;;;;;4921692;29;20048;-58
2024/01/23 07:42:37;;;;;;;9.45;2.75;;;22.10;30.00;;;;;;4925191;29;20064;-61
2024/01/23 07:45:06;;;;;;;9.60;2.85;;;22.10;30.00;;;;;;4926595;29;20067;-61
2024/01/23 07:47:33;;;;;;;10.02;2.85;;;22.10;30.00;;;;;;4924763;29;20052;-62
2024/01/23 07:50:02;;;;;;;9.00;2.83;;;22.10;30.00;;;;;;4926383;29;20059;-61
2024/01/23 07:52:31;;;;;;;6.53;2.40;;;22.00;30.00;;;;;;4927309;29;20062;-58
2024/01/23 07:54:58;;;;;;;8.00;2.88;;;22.00;30.50;;;;;;4923308;29;20051;-58
2024/01/23 07:57:25;;;;;;;8.70;2.88;;;22.00;30.10;;;;;;4921596;29;20060;-59
2024/01/23 07:59:53;;;;;;;13.98;2.75;;;22.00;30.20;;;;;;4924701;29;20527;-54
2024/01/23 08:02:20;;;;;;;10.15;2.45;;;21.90;30.10;;;;;;4923536;29;20066;-61
2024/01/23 08:04:47;;;;;;;8.98;2.17;;;21.90;30.20;;;;;;4926869;29;20078;-51
2024/01/23 08:07:16;;;;;;;6.10;2.50;;;22.00;30.30;;;;;;4920469;29;20047;-57
2024/01/23 08:09:43;;;;;;;29.17;14.07;;;22.00;30.30;;;;;;4925520;29;20556;-58
2024/01/23 08:12:10;;;;;;;30.70;13.63;;;22.00;30.30;;;;;;4925125;29;20059;-59
2024/01/23 08:14:37;;;;;;;16.02;8.32;;;22.10;30.30;;;;;;4928398;29;20052;-60
2024/01/23 08:17:04;;;;;;;14.82;6.78;;;22.10;30.20;;;;;;4927477;29;20052;-60
2024/01/23 08:19:32;;;;;;;11.73;6.03;;;22.20;30.30;;;;;;4928169;29;20051;-62
2024/01/23 08:21:59;;;;;;;12.32;6.05;;;22.20;30.20;;;;;;4927171;29;20563;-56
2024/01/23 08:24:29;;;;;;;15.25;6.75;;;22.20;30.20;;;;;;4928571;29;20503;-59
2024/01/23 08:26:56;;;;;;;13.93;5.97;;;22.30;30.20;;;;;;4928453;29;21481;-63
2024/01/23 08:29:23;;;;;;;11.73;5.30;;;22.30;30.20;;;;;;4929845;29;20058;-58
2024/01/23 08:31:50;;;;;;;9.80;4.82;;;22.30;30.10;;;;;;4930880;29;20052;-61
2024/01/23 08:34:18;;;;;;;12.43;4.88;;;22.30;30.10;;;;;;4935441;29;20161;-61
2024/01/23 08:36:45;;;;;;;14.90;5.53;;;22.30;30.10;;;;;;4928793;29;20075;-61
2024/01/23 08:39:12;;;;;;;11.82;4.72;;;22.30;30.10;;;;;;4928561;29;20050;-59
2024/01/23 08:41:41;;;;;;;18.15;5.05;;;22.30;30.10;;;;;;4931080;29;20377;-60
2024/01/23 08:44:08;;;;;;;18.80;4.88;;;22.30;30.10;;;;;;4945294;28;20058;-55
2024/01/23 08:46:35;;;;;;;15.10;3.95;;;22.30;30.00;;;;;;4949141;28;20078;-60
2024/01/23 08:49:03;;;;;;;11.05;3.70;;;22.30;30.00;;;;;;4953472;28;20055;-61
2024/01/23 08:51:30;;;;;;;12.40;3.53;;;22.30;30.00;;;;;;4935098;28;20051;-59
2024/01/23 08:53:57;;;;;;;14.43;3.40;;;22.30;30.00;;;;;;4960927;28;20055;-63
2024/01/23 08:56:25;;;;;;;8.82;4.20;;;22.30;30.00;;;;;;4951528;28;20065;-63
2024/01/23 08:58:53;;;;;;;9.63;3.38;;;22.20;30.00;;;;;;4951811;28;20055;-58
2024/01/23 09:01:21;;;;;;;9.75;3.47;;;22.20;30.50;;;;;;4950348;28;20082;-63
2024/01/23 09:03:48;;;;;;;10.88;3.22;;;22.20;30.00;;;;;;4960010;28;20050;-64
2024/01/23 09:06:15;;;;;;;9.45;3.22;;;22.20;30.00;;;;;;4954464;28;20499;-61
2024/01/23 09:08:42;;;;;;;10.80;3.10;;;22.20;30.00;;;;;;4931706;28;20526;-62
2024/01/23 09:11:10;;;;;;;8.60;3.17;;;22.20;30.00;;;;;;4951976;29;20059;-62
2024/01/23 09:13:37;;;;;;;8.57;2.63;;;22.10;30.00;;;;;;4952146;29;20448;-65
2024/01/23 09:16:06;;;;;;;7.68;2.80;;;22.10;30.00;;;;;;4953989;28;20051;-59
2024/01/23 09:18:33;;;;;;;8.02;3.15;;;22.10;30.00;;;;;;4958559;28;20058;-60
2024/01/23 09:21:02;;;;;;;11.10;3.53;;;22.00;30.00;;;;;;4945152;28;20055;-61
2024/01/23 09:23:30;;;;;;;7.65;2.40;;;22.00;30.00;;;;;;4953233;28;20078;-63
2024/01/23 09:25:57;;;;;;;9.85;2.75;;;22.00;30.00;;;;;;4952338;29;20404;-61
2024/01/23 09:28:24;;;;;;;8.07;2.90;;;22.00;30.00;;;;;;4948653;29;20492;-59
2024/01/23 09:30:52;;;;;;;8.00;2.78;;;21.90;30.00;;;;;;4934323;28;20059;-54
2024/01/23 09:33:20;;;;;;;8.50;3.17;;;21.90;30.00;;;;;;4947385;28;20051;-63
2024/01/23 09:35:48;;;;;;;8.50;2.72;;;21.90;30.10;;;;;;4951051;28;20397;-56
2024/01/23 09:38:15;;;;;;;8.05;2.72;;;21.80;30.00;;;;;;4951076;29;20051;-56
2024/01/23 09:40:43;;;;;;;6.90;2.53;;;21.80;30.10;;;;;;4947061;29;20058;-57
2024/01/23 09:43:12;;;;;;;10.77;2.90;;;21.80;30.20;;;;;;4951795;29;20066;-57
2024/01/23 09:45:41;;;;;;;7.32;2.40;;;21.80;30.30;;;;;;4958087;23;20400;-58
2024/01/23 09:48:09;;;;;;;8.77;2.40;;;21.80;30.40;;;;;;4941417;29;20423;-58
2024/01/23 09:50:41;;;;;;;7.03;2.55;;;21.80;30.40;;;;;;4947155;29;20062;-54
2024/01/23 09:53:10;;;;;;;7.47;2.55;;;21.90;30.60;;;;;;4949829;28;20047;-58
2024/01/23 09:55:38;;;;;;;8.00;2.78;;;21.90;30.60;;;;;;4924408;28;20935;-55
2024/01/23 09:58:07;;;;;;;6.07;2.40;;;22.00;31.10;;;;;;4947868;28;20484;-60
2024/01/23 10:00:35;;;;;;;7.05;2.90;;;22.00;31.10;;;;;;4950005;28;20066;-56
2024/01/23 10:03:03;;;;;;;7.47;2.85;;;22.10;30.60;;;;;;4950855;29;20059;-58
2024/01/23 10:05:31;;;;;;;6.25;2.75;;;22.10;30.60;;;;;;4928557;28;20611;-58
2024/01/23 10:07:59;;;;;;;6.55;2.22;;;22.20;30.60;;;;;;4925678;28;20059;-58
2024/01/23 10:10:27;;;;;;;6.93;2.58;;;22.30;30.60;;;;;;4952319;28;20077;-56
2024/01/23 10:12:54;;;;;;;7.38;2.53;;;22.30;30.60;;;;;;4949854;29;20066;-56
2024/01/23 10:15:22;;;;;;;5.75;2.58;;;22.30;30.50;;;;;;4948524;29;20082;-56
2024/01/23 10:17:50;;;;;;;6.20;2.40;;;22.40;30.50;;;;;;4944836;29;20504;-56
2024/01/23 10:20:18;;;;;;;7.18;2.45;;;22.40;30.50;;;;;;4947939;29;20059;-56
2024/01/23 10:22:45;;;;;;;13.10;2.50;;;22.50;30.50;;;;;;4938413;28;20050;-57
2024/01/23 10:25:19;;;;;;;6.65;2.13;;;22.50;30.40;;;;;;4940083;29;20058;-55
2024/01/23 10:27:50;;;;;;;6.40;2.55;;;22.50;30.40;;;;;;4943974;29;20055;-55
2024/01/23 10:30:18;;;;;;;7.43;2.40;;;22.50;30.30;;;;;;4947090;29;20043;-56
2024/01/23 10:32:46;;;;;;;8.57;2.95;;;22.60;30.20;;;;;;4940182;29;20060;-57
2024/01/23 10:35:13;;;;;;;7.72;2.63;;;22.50;30.00;;;;;;4947641;29;20066;-55
2024/01/23 10:37:41;;;;;;;7.47;2.92;;;22.60;30.00;;;;;;4948328;29;20051;-58
2024/01/23 10:40:13;;;;;;;6.45;2.22;;;22.60;30.00;;;;;;4948265;29;20495;-57
2024/01/23 10:42:42;;;;;;;10.18;2.95;;;22.50;30.00;;;;;;4947722;29;20055;-58
2024/01/23 10:45:11;;;;;;;8.40;3.13;;;22.60;30.00;;;;;;4943895;29;20055;-57
2024/01/23 10:47:39;;;;;;;11.60;3.05;;;22.50;30.00;;;;;;4947786;29;20081;-55
2024/01/23 10:50:08;;;;;;;8.50;2.75;;;22.50;30.00;;;;;;4948028;29;20055;-54
2024/01/23 10:52:40;;;;;;;10.63;3.17;;;22.50;30.00;;;;;;4950141;28;20050;-52
2024/01/23 10:55:08;;;;;;;9.55;2.60;;;22.50;30.00;;;;;;4951184;29;20051;-52
2024/01/23 10:57:37;;;;;;;7.30;2.50;;;22.50;30.00;;;;;;4949805;29;20055;-55
2024/01/23 11:00:07;;;;;;;9.30;2.58;;;22.40;30.00;;;;;;4945032;28;20055;-54
2024/01/23 11:02:39;;;;;;;8.98;2.58;;;22.40;30.00;;;;;;4940423;29;20063;-55
2024/01/23 11:05:07;;;;;;;9.68;2.92;;;22.40;30.00;;;;;;4939685;29;20058;-52
2024/01/23 11:07:40;;;;;;;8.48;2.45;;;22.30;29.90;;;;;;4940961;29;20491;-55
2024/01/23 11:10:15;;;;;;;11.75;2.50;;;22.30;30.00;;;;;;4946916;28;20427;-55
2024/01/23 11:12:50;;;;;;;7.35;2.72;;;22.30;30.00;;;;;;4944263;28;20055;-55
2024/01/23 11:15:18;;;;;;;7.00;2.38;;;22.30;30.00;;;;;;4941386;28;20051;-54
2024/01/23 11:17:46;;;;;;;10.27;2.45;;;22.20;29.90;;;;;;4945456;28;20499;-55
2024/01/23 11:20:17;;;;;;;8.70;2.75;;;22.20;30.00;;;;;;4941762;28;20052;-54
2024/01/23 11:22:45;;;;;;;10.07;2.78;;;22.10;29.90;;;;;;4943182;29;20419;-52
2024/01/23 11:25:17;;;;;;;5.63;2.40;;;22.10;30.00;;;;;;4948405;28;20058;-54
2024/01/23 11:27:48;;;;;;;13.88;2.53;;;22.00;30.00;;;;;;4946224;28;20051;-52
2024/01/23 11:30:16;;;;;;;6.32;2.42;;;22.00;30.00;;;;;;4942645;28;20052;-53
2024/01/23 11:32:44;;;;;;;6.68;2.08;;;22.00;30.10;;;;;;4947583;28;20496;-53
2024/01/23 11:35:12;;;;;;;17.77;3.00;;;22.00;30.20;;;;;;4944840;28;20504;-53
2024/01/23 11:37:45;;;;;;;8.10;2.42;;;22.00;30.20;;;;;;4947575;28;20051;-55
2024/01/23 11:40:36;;;;;;;10.80;2.47;;;21.90;30.20;;;;;;4947238;28;20043;-55
2024/01/23 11:43:06;;;;;;;7.40;2.67;;;21.90;30.20;;;;;;4938678;29;20056;-57
2024/01/23 11:45:36;;;;;;;24.40;2.97;;;21.90;30.20;;;;;;4943137;29;20082;-57
2024/01/23 11:48:06;;;;;;;12.23;3.20;;;21.80;30.20;;;;;;4942791;29;20056;-55
2024/01/23 11:50:35;;;;;;;8.00;2.28;;;21.80;30.20;;;;;;4939136;28;20062;-58
2024/01/23 11:53:03;;;;;;;10.75;2.90;;;21.80;30.20;;;;;;4937767;28;20165;-57
2024/01/23 11:55:30;;;;;;;7.60;2.80;;;21.80;30.30;;;;;;4949746;29;20055;-57
2024/01/23 11:57:59;;;;;;;6.13;1.92;;;21.80;30.30;;;;;;4950240;29;20051;-54
2024/01/23 12:00:27;;;;;;;7.63;2.55;;;21.80;30.30;;;;;;4946074;29;20063;-55
2024/01/23 12:02:55;;;;;;;7.15;2.33;;;21.80;30.30;;;;;;4949143;28;20065;-54
2024/01/23 12:05:24;;;;;;;8.50;2.55;;;21.90;30.40;;;;;;4954017;28;20060;-58
2024/01/23 12:07:51;;;;;;;8.25;2.45;;;21.90;30.40;;;;;;4956562;28;20415;-59
2024/01/23 12:10:19;;;;;;;9.23;2.55;;;22.00;30.40;;;;;;4955574;28;20546;-54
2024/01/23 12:12:51;;;;;;;7.88;2.83;;;22.00;30.40;;;;;;4964439;28;20066;-53
2024/01/23 12:15:18;;;;;;;7.40;2.08;;;22.10;30.40;;;;;;4963463;28;20059;-56
2024/01/23 12:17:49;;;;;;;9.65;3.03;;;22.10;30.40;;;;;;4961370;28;20058;-54
2024/01/23 12:20:16;;;;;;;7.75;2.60;;;22.20;30.40;;;;;;4948015;28;20059;-55
2024/01/23 12:22:45;;;;;;;8.60;2.33;;;22.30;30.30;;;;;;4948716;28;20066;-56
2024/01/23 12:25:13;;;;;;;9.25;2.58;;;22.30;30.20;;;;;;4955784;28;20059;-55
2024/01/23 12:27:42;;;;;;;7.68;2.38;;;22.30;30.10;;;;;;4957523;28;20054;-56
2024/01/23 12:30:13;;;;;;;5.68;2.33;;;22.40;30.60;;;;;;4950420;28;20530;-56
2024/01/23 12:32:40;;;;;;;7.63;2.72;;;22.40;30.10;;;;;;4949114;28;20058;-55
2024/01/23 12:35:10;;;;;;;9.65;2.50;;;22.40;30.00;;;;;;4950312;28;20125;-57
2024/01/23 12:37:40;;;;;;;8.10;2.60;;;22.40;30.00;;;;;;4944071;28;20069;-55
2024/01/23 12:40:11;;;;;;;11.68;3.13;;;22.50;30.00;;;;;;4942352;28;20496;-58
2024/01/23 12:42:40;;;;;;;11.90;3.20;;;22.50;30.00;;;;;;4950779;29;20055;-55
2024/01/23 12:45:13;;;;;;;7.75;3.00;;;22.50;29.90;;;;;;4948023;28;20047;-55
2024/01/23 12:47:41;;;;;;;7.47;2.80;;;22.50;29.90;;;;;;4951827;29;20055;-55